Time;durP1;ratioP1;P1;durP2;ratioP2;P2;SDS_P1;SDS_P2;PMS_P1;PMS_P2;Temp;Humidity;BMP_temperature;BMP_pressure;BME280_temperature;BME280_humidity;BME280_pressure;Samples;Min_cycle;Max_cycle;Signal;HPM_P1;HPM_P2
2024/01/17 00:00:21;;;;;;;15.63;5.38;;;0.30;99.90;;;;;;5015063;28;20129;-61
2024/01/17 00:02:48;;;;;;;12.82;6.00;;;0.40;99.90;;;;;;5016392;28;20189;-61
2024/01/17 00:05:15;;;;;;;15.80;6.13;;;0.40;99.90;;;;;;5016124;28;20046;-61
2024/01/17 00:07:42;;;;;;;16.85;6.70;;;0.40;99.90;;;;;;5016379;28;20042;-61
2024/01/17 00:10:12;;;;;;;15.73;7.15;;;0.40;99.90;;;;;;5016230;28;20037;-61
2024/01/17 00:12:39;;;;;;;16.15;7.32;;;0.40;99.90;;;;;;5014876;28;20136;-61
2024/01/17 00:15:05;;;;;;;19.70;7.80;;;0.50;99.90;;;;;;5014799;28;20458;-61
2024/01/17 00:17:32;;;;;;;16.02;8.02;;;0.50;99.90;;;;;;5015956;28;20060;-61
2024/01/17 00:19:59;;;;;;;15.25;7.78;;;0.50;99.90;;;;;;5016009;28;20057;-61
2024/01/17 00:22:26;;;;;;;16.73;7.88;;;0.50;99.90;;;;;;5016198;28;20073;-61
2024/01/17 00:24:53;;;;;;;21.00;8.50;;;0.50;99.90;;;;;;5015868;28;20046;-61
2024/01/17 00:27:24;;;;;;;18.90;7.97;;;0.60;99.90;;;;;;5015965;28;20066;-61
2024/01/17 00:29:57;;;;;;;17.83;7.78;;;0.60;99.90;;;;;;5016200;28;20046;-61
2024/01/17 00:32:25;;;;;;;17.88;8.32;;;0.60;99.90;;;;;;5016171;28;20069;-61
2024/01/17 00:34:52;;;;;;;17.45;8.20;;;0.60;99.90;;;;;;5015865;28;20364;-61
2024/01/17 00:37:19;;;;;;;16.45;7.50;;;0.70;99.90;;;;;;5015599;28;20368;-61
2024/01/17 00:39:45;;;;;;;20.48;8.23;;;0.70;99.90;;;;;;5015241;28;20038;-61
2024/01/17 00:42:12;;;;;;;16.98;8.23;;;0.70;99.90;;;;;;5015562;28;20042;-64
2024/01/17 00:44:39;;;;;;;19.63;9.18;;;0.70;99.90;;;;;;5015510;28;20388;-65
2024/01/17 00:47:06;;;;;;;16.13;7.60;;;0.80;99.90;;;;;;5015870;28;20467;-66
2024/01/17 00:49:33;;;;;;;17.55;8.90;;;0.80;99.90;;;;;;5015681;28;20050;-66
2024/01/17 00:52:00;;;;;;;19.27;8.27;;;0.80;99.90;;;;;;5015142;28;20042;-65
2024/01/17 00:54:27;;;;;;;19.35;9.20;;;0.80;99.90;;;;;;5015182;28;20058;-65
2024/01/17 00:56:54;;;;;;;18.20;7.70;;;0.80;99.90;;;;;;5015160;28;20375;-66
2024/01/17 00:59:21;;;;;;;16.17;8.25;;;0.80;99.90;;;;;;5014804;28;20053;-66
2024/01/17 01:01:47;;;;;;;21.40;8.45;;;0.80;99.90;;;;;;5015272;28;20038;-66
2024/01/17 01:04:14;;;;;;;15.50;7.30;;;0.80;99.90;;;;;;5014915;28;20117;-66
2024/01/17 01:06:41;;;;;;;13.43;7.38;;;0.80;99.90;;;;;;5014001;28;20044;-66
2024/01/17 01:09:09;;;;;;;17.85;6.85;;;0.90;99.90;;;;;;5015241;28;20053;-64
2024/01/17 01:11:36;;;;;;;16.15;7.82;;;0.90;99.90;;;;;;5014928;28;20045;-66
2024/01/17 01:14:03;;;;;;;12.02;6.68;;;0.90;99.90;;;;;;5013847;28;20159;-65
2024/01/17 01:16:30;;;;;;;15.50;7.70;;;0.90;99.90;;;;;;5014650;28;20077;-65
2024/01/17 01:18:57;;;;;;;16.13;7.32;;;1.00;99.90;;;;;;5014198;28;20065;-63
2024/01/17 01:21:24;;;;;;;17.25;7.43;;;1.00;99.90;;;;;;5014747;28;20100;-64
2024/01/17 01:23:50;;;;;;;15.35;7.05;;;1.00;99.90;;;;;;5014454;28;20392;-65
2024/01/17 01:26:17;;;;;;;14.45;6.22;;;1.00;99.90;;;;;;5014298;28;20038;-65
2024/01/17 01:28:44;;;;;;;14.32;5.93;;;1.00;99.90;;;;;;5014658;28;20049;-64
2024/01/17 01:31:11;;;;;;;12.40;6.13;;;1.00;99.90;;;;;;5013104;28;20145;-65
2024/01/17 01:33:38;;;;;;;15.75;7.07;;;1.00;99.90;;;;;;5014214;28;20582;-65
2024/01/17 01:36:05;;;;;;;13.57;6.50;;;1.10;99.90;;;;;;5014496;28;20054;-64
2024/01/17 01:38:32;;;;;;;11.90;6.15;;;1.10;99.90;;;;;;5013262;28;20076;-65
2024/01/17 01:40:59;;;;;;;15.13;6.57;;;1.10;99.90;;;;;;5013402;28;20046;-60
2024/01/17 01:43:26;;;;;;;12.70;5.85;;;1.10;99.90;;;;;;5014108;28;20053;-60
2024/01/17 01:45:52;;;;;;;13.85;5.95;;;1.10;99.90;;;;;;5014303;28;20108;-60
2024/01/17 01:48:19;;;;;;;11.55;5.72;;;1.10;99.90;;;;;;5013969;28;20049;-60
2024/01/17 01:50:46;;;;;;;15.93;5.85;;;1.10;99.90;;;;;;5013005;28;20433;-65
2024/01/17 01:53:14;;;;;;;14.13;6.53;;;1.10;99.90;;;;;;5014245;28;20441;-65
2024/01/17 01:55:41;;;;;;;12.10;5.93;;;1.20;99.90;;;;;;5014115;28;20045;-65
2024/01/17 01:58:08;;;;;;;11.93;6.18;;;1.20;99.90;;;;;;5014490;28;20045;-65
2024/01/17 02:00:34;;;;;;;10.05;4.78;;;1.20;99.90;;;;;;5012934;28;20049;-65
2024/01/17 02:03:01;;;;;;;10.27;4.80;;;1.20;99.90;;;;;;5014845;28;20034;-60
2024/01/17 02:05:28;;;;;;;8.75;4.60;;;1.20;99.90;;;;;;5014076;28;20482;-61
2024/01/17 02:07:56;;;;;;;11.02;4.72;;;1.20;99.90;;;;;;5014047;28;20121;-61
2024/01/17 02:10:23;;;;;;;8.82;4.15;;;1.20;99.90;;;;;;5013664;28;20050;-61
2024/01/17 02:12:49;;;;;;;9.07;4.63;;;1.20;99.90;;;;;;5014104;28;20050;-62
2024/01/17 02:15:16;;;;;;;9.85;4.55;;;1.30;99.90;;;;;;5012402;28;20050;-60
2024/01/17 02:17:43;;;;;;;11.05;4.57;;;1.30;99.90;;;;;;5014354;28;20491;-60
2024/01/17 02:20:10;;;;;;;8.57;4.50;;;1.30;99.90;;;;;;5013710;28;20062;-61
2024/01/17 02:22:37;;;;;;;11.13;4.75;;;1.30;99.90;;;;;;5014102;28;20434;-60
2024/01/17 02:25:04;;;;;;;10.82;4.20;;;1.30;99.90;;;;;;5013618;28;20450;-60
2024/01/17 02:27:31;;;;;;;9.48;4.00;;;1.40;99.90;;;;;;5014260;28;20034;-60
2024/01/17 02:29:58;;;;;;;9.65;3.92;;;1.30;99.90;;;;;;5013547;28;20129;-60
2024/01/17 02:32:25;;;;;;;7.70;3.83;;;1.30;99.90;;;;;;5013775;28;20050;-60
2024/01/17 02:34:52;;;;;;;8.48;4.03;;;1.30;99.90;;;;;;5013536;28;20042;-60
2024/01/17 02:37:18;;;;;;;11.98;4.45;;;1.40;99.90;;;;;;5012794;28;20125;-60
2024/01/17 02:39:45;;;;;;;9.48;4.45;;;1.40;99.90;;;;;;5014022;28;20048;-60
2024/01/17 02:42:12;;;;;;;7.55;4.07;;;1.40;99.90;;;;;;5013481;28;20112;-60
2024/01/17 02:44:39;;;;;;;6.88;3.40;;;1.40;99.90;;;;;;5013763;28;20054;-60
2024/01/17 02:47:06;;;;;;;9.20;4.00;;;1.40;99.90;;;;;;5013518;28;20041;-60
2024/01/17 02:49:34;;;;;;;6.10;3.30;;;1.40;99.90;;;;;;5013687;28;20046;-60
2024/01/17 02:52:01;;;;;;;9.80;3.97;;;1.40;99.90;;;;;;5013804;28;20042;-60
2024/01/17 02:54:27;;;;;;;5.78;3.83;;;1.40;99.90;;;;;;5011983;28;20046;-61
2024/01/17 02:56:55;;;;;;;7.78;4.05;;;1.40;99.90;;;;;;5012619;28;20550;-61
2024/01/17 02:59:22;;;;;;;7.40;3.58;;;1.40;99.90;;;;;;5013179;28;20048;-60
2024/01/17 03:01:50;;;;;;;7.20;3.83;;;1.40;99.90;;;;;;5013442;28;20048;-60
2024/01/17 03:04:17;;;;;;;8.73;3.60;;;1.40;99.90;;;;;;5013242;28;20046;-60
2024/01/17 03:06:45;;;;;;;8.52;3.90;;;1.40;99.90;;;;;;5013496;28;20053;-61
2024/01/17 03:09:12;;;;;;;7.30;3.40;;;1.40;99.90;;;;;;5013124;28;20046;-60
2024/01/17 03:11:40;;;;;;;9.23;3.58;;;1.40;99.90;;;;;;5012871;28;20049;-60
2024/01/17 03:14:07;;;;;;;6.88;3.55;;;1.40;99.90;;;;;;5013047;28;20046;-60
2024/01/17 03:16:36;;;;;;;6.82;3.50;;;1.40;99.90;;;;;;5013282;28;20096;-60
2024/01/17 03:19:03;;;;;;;7.75;3.22;;;1.40;99.90;;;;;;5011456;28;20046;-59
2024/01/17 03:21:30;;;;;;;6.65;3.38;;;1.30;99.90;;;;;;5013452;28;20042;-61
2024/01/17 03:23:58;;;;;;;7.28;3.42;;;1.30;99.90;;;;;;5028177;28;20046;-60
2024/01/17 03:26:25;;;;;;;5.57;3.10;;;1.30;99.90;;;;;;5012237;28;20061;-61
2024/01/17 03:28:52;;;;;;;6.85;3.50;;;1.30;99.90;;;;;;5012915;28;20042;-61
2024/01/17 03:31:19;;;;;;;8.55;3.90;;;1.30;99.90;;;;;;5013046;28;20042;-61
2024/01/17 03:33:45;;;;;;;7.15;3.83;;;1.20;99.90;;;;;;5012776;28;20057;-60
2024/01/17 03:36:12;;;;;;;8.88;4.00;;;1.20;99.90;;;;;;5013193;28;20100;-61
2024/01/17 03:38:40;;;;;;;7.55;3.58;;;1.10;99.90;;;;;;5011812;28;20046;-61
2024/01/17 03:41:07;;;;;;;7.40;3.42;;;1.10;99.90;;;;;;5012914;28;20045;-64
2024/01/17 03:43:34;;;;;;;9.10;3.60;;;1.00;99.90;;;;;;5012666;28;20494;-65
2024/01/17 03:46:01;;;;;;;8.13;3.72;;;1.00;99.90;;;;;;5012928;28;20049;-65
2024/01/17 03:48:28;;;;;;;6.55;3.53;;;1.00;99.90;;;;;;5012681;28;20049;-65
2024/01/17 03:50:55;;;;;;;7.35;3.63;;;1.00;99.90;;;;;;5011606;28;20125;-65
2024/01/17 03:53:21;;;;;;;8.18;4.25;;;1.00;99.90;;;;;;5013045;28;20104;-65
2024/01/17 03:55:48;;;;;;;8.30;4.25;;;0.90;99.90;;;;;;5028003;28;20104;-65
2024/01/17 03:58:15;;;;;;;9.98;3.85;;;0.90;99.90;;;;;;5012887;28;20128;-65
2024/01/17 04:00:42;;;;;;;8.85;3.63;;;0.90;99.90;;;;;;5012537;28;20088;-65
2024/01/17 04:03:09;;;;;;;11.88;4.25;;;0.90;99.90;;;;;;5012857;28;20421;-65
2024/01/17 04:05:36;;;;;;;8.50;4.25;;;0.90;99.90;;;;;;5013131;28;20042;-65
2024/01/17 04:08:02;;;;;;;7.15;3.72;;;0.90;99.90;;;;;;5015599;28;20421;-65
2024/01/17 04:10:29;;;;;;;7.05;4.22;;;0.90;99.90;;;;;;5015899;28;20045;-65
2024/01/17 04:12:56;;;;;;;6.28;3.75;;;0.80;99.90;;;;;;5016404;28;20128;-65
2024/01/17 04:15:23;;;;;;;9.88;3.95;;;0.80;99.90;;;;;;5016017;28;20041;-65
2024/01/17 04:17:49;;;;;;;10.10;4.07;;;0.80;99.90;;;;;;5016061;28;20054;-65
2024/01/17 04:20:16;;;;;;;9.63;4.28;;;0.80;99.90;;;;;;5015742;28;20467;-65
2024/01/17 04:22:43;;;;;;;7.97;4.20;;;0.80;99.90;;;;;;5015879;28;20444;-65
2024/01/17 04:25:10;;;;;;;9.13;4.03;;;0.80;99.90;;;;;;5015978;28;20514;-65
2024/01/17 04:27:37;;;;;;;6.82;3.55;;;0.80;99.90;;;;;;4998438;28;20038;-66
2024/01/17 04:30:03;;;;;;;11.10;4.60;;;0.80;99.90;;;;;;5015838;28;20068;-65
2024/01/17 04:32:30;;;;;;;7.57;4.13;;;0.80;99.90;;;;;;5015897;28;20133;-65
2024/01/17 04:34:57;;;;;;;7.22;4.35;;;0.80;99.90;;;;;;5030478;28;20046;-66
2024/01/17 04:37:24;;;;;;;8.18;4.13;;;0.80;99.90;;;;;;5015858;28;20056;-65
2024/01/17 04:39:50;;;;;;;9.02;4.85;;;0.80;99.90;;;;;;5015732;28;20038;-65
2024/01/17 04:42:17;;;;;;;10.68;4.80;;;0.80;99.90;;;;;;5015571;28;20100;-65
2024/01/17 04:44:45;;;;;;;7.40;5.00;;;0.80;99.90;;;;;;5015616;28;20034;-65
2024/01/17 04:47:13;;;;;;;9.07;4.20;;;0.80;99.90;;;;;;5015418;28;20037;-65
2024/01/17 04:49:40;;;;;;;7.80;4.90;;;0.80;99.90;;;;;;5015309;28;20049;-65
2024/01/17 04:52:08;;;;;;;7.95;4.65;;;0.80;99.90;;;;;;5015671;28;20045;-65
2024/01/17 04:54:36;;;;;;;7.75;4.60;;;0.80;99.90;;;;;;5015173;28;20056;-65
2024/01/17 04:57:03;;;;;;;8.27;4.82;;;0.80;99.90;;;;;;5015441;28;20045;-66
2024/01/17 04:59:29;;;;;;;11.95;4.70;;;0.80;99.90;;;;;;5015122;28;20126;-66
2024/01/17 05:01:56;;;;;;;13.57;4.88;;;0.80;99.90;;;;;;5015469;28;20108;-66
2024/01/17 05:04:23;;;;;;;12.60;5.00;;;0.80;99.90;;;;;;5013766;28;20042;-66
2024/01/17 05:06:50;;;;;;;7.10;4.78;;;0.80;99.90;;;;;;5014908;28;20427;-65
2024/01/17 05:09:18;;;;;;;7.95;4.72;;;0.80;99.90;;;;;;5015275;28;20044;-66
2024/01/17 05:11:45;;;;;;;11.35;4.88;;;0.80;99.90;;;;;;5014783;28;20048;-66
2024/01/17 05:14:12;;;;;;;9.65;5.20;;;0.80;99.90;;;;;;5014980;28;20034;-65
2024/01/17 05:16:39;;;;;;;7.13;4.43;;;0.80;99.90;;;;;;5015051;28;20038;-66
2024/01/17 05:19:05;;;;;;;7.57;5.22;;;0.80;99.90;;;;;;5013937;28;20451;-65
2024/01/17 05:21:32;;;;;;;8.82;5.50;;;0.80;99.90;;;;;;5014937;28;20121;-66
2024/01/17 05:23:59;;;;;;;10.93;6.15;;;0.80;99.90;;;;;;5014311;28;20045;-65
2024/01/17 05:26:26;;;;;;;10.77;5.00;;;0.80;99.90;;;;;;5014599;28;20054;-66
2024/01/17 05:28:53;;;;;;;7.90;4.78;;;0.80;99.90;;;;;;5014849;28;20470;-66
2024/01/17 05:31:20;;;;;;;12.73;4.95;;;0.90;99.90;;;;;;5015105;28;20391;-65
2024/01/17 05:33:46;;;;;;;7.32;4.65;;;0.90;99.90;;;;;;5014328;28;20460;-65
2024/01/17 05:36:14;;;;;;;9.27;4.85;;;0.90;99.90;;;;;;5014501;28;20046;-66
2024/01/17 05:38:41;;;;;;;8.48;5.05;;;0.90;99.90;;;;;;5014071;28;20132;-66
2024/01/17 05:41:08;;;;;;;7.68;4.70;;;0.90;99.90;;;;;;5014564;28;20048;-64
2024/01/17 05:43:34;;;;;;;8.88;4.70;;;0.90;99.90;;;;;;5014451;28;20044;-66
2024/01/17 05:46:02;;;;;;;8.82;5.18;;;0.90;99.90;;;;;;5014694;28;20436;-65
2024/01/17 05:48:28;;;;;;;9.57;5.05;;;0.90;99.90;;;;;;5014284;28;20048;-65
2024/01/17 05:50:56;;;;;;;6.60;4.45;;;0.90;99.90;;;;;;5014316;28;20046;-65
2024/01/17 05:53:22;;;;;;;9.05;5.00;;;0.90;99.90;;;;;;5014534;28;20044;-65
2024/01/17 05:55:49;;;;;;;9.90;4.53;;;0.90;99.90;;;;;;5014100;28;20055;-64
2024/01/17 05:58:16;;;;;;;8.57;4.57;;;0.90;99.90;;;;;;5013040;28;20041;-65
2024/01/17 06:00:43;;;;;;;8.82;4.53;;;0.90;99.90;;;;;;5014385;28;20038;-65
2024/01/17 06:03:10;;;;;;;12.95;5.57;;;0.90;99.90;;;;;;5013956;28;20037;-65
2024/01/17 06:05:36;;;;;;;10.23;5.50;;;0.90;99.90;;;;;;5013856;28;20053;-65
2024/01/17 06:08:04;;;;;;;10.40;5.50;;;0.90;99.90;;;;;;5014003;28;20084;-65
2024/01/17 06:10:31;;;;;;;7.72;4.25;;;0.90;99.90;;;;;;5013193;28;20075;-65
2024/01/17 06:12:58;;;;;;;10.38;4.75;;;0.90;99.90;;;;;;5014195;28;20048;-65
2024/01/17 06:15:25;;;;;;;10.05;5.13;;;0.90;99.90;;;;;;5014352;28;20049;-65
2024/01/17 06:17:51;;;;;;;11.38;5.35;;;0.90;99.90;;;;;;5014223;28;20046;-65
2024/01/17 06:20:18;;;;;;;7.70;4.97;;;0.90;99.90;;;;;;5012212;28;20123;-65
2024/01/17 06:22:45;;;;;;;10.20;4.63;;;0.90;99.90;;;;;;5014436;28;20368;-65
2024/01/17 06:25:13;;;;;;;5.97;4.65;;;0.90;99.90;;;;;;5013843;28;20050;-65
2024/01/17 06:27:40;;;;;;;11.52;5.13;;;0.90;99.90;;;;;;5013860;28;20050;-65
2024/01/17 06:30:07;;;;;;;10.77;5.35;;;0.90;99.90;;;;;;5013577;28;20048;-65
2024/01/17 06:32:35;;;;;;;8.82;5.00;;;1.00;99.90;;;;;;5013614;28;20042;-65
2024/01/17 06:35:02;;;;;;;8.93;5.07;;;1.00;99.90;;;;;;4995857;28;20045;-65
2024/01/17 06:37:29;;;;;;;9.43;5.15;;;1.00;99.90;;;;;;5013663;28;20393;-65
2024/01/17 06:39:55;;;;;;;13.13;4.97;;;1.00;99.90;;;;;;5013589;28;20069;-65
2024/01/17 06:42:22;;;;;;;9.48;4.85;;;1.00;99.90;;;;;;5012319;28;20042;-61
2024/01/17 06:44:49;;;;;;;7.25;4.90;;;1.00;99.90;;;;;;5013139;28;20112;-60
2024/01/17 06:47:16;;;;;;;10.48;5.15;;;1.10;99.90;;;;;;5013489;28;20042;-60
2024/01/17 06:49:43;;;;;;;9.40;4.78;;;1.00;99.90;;;;;;5013358;28;20046;-60
2024/01/17 06:52:10;;;;;;;10.50;5.18;;;1.10;99.90;;;;;;5013878;28;20046;-60
2024/01/17 06:54:37;;;;;;;8.80;5.30;;;1.10;99.90;;;;;;5013483;28;20156;-61
2024/01/17 06:57:04;;;;;;;10.75;5.18;;;1.10;99.90;;;;;;5013411;28;20042;-60
2024/01/17 06:59:30;;;;;;;12.68;5.47;;;1.10;99.90;;;;;;5013472;28;20046;-61
2024/01/17 07:01:57;;;;;;;15.43;5.88;;;1.10;99.90;;;;;;5013130;28;20121;-61
2024/01/17 07:04:24;;;;;;;11.95;5.68;;;1.20;99.90;;;;;;5013147;28;20392;-61
2024/01/17 07:06:51;;;;;;;10.95;5.93;;;1.20;99.90;;;;;;5013072;28;20399;-61
2024/01/17 07:09:18;;;;;;;11.35;5.68;;;1.20;99.90;;;;;;5013598;28;20046;-61
2024/01/17 07:11:45;;;;;;;9.90;5.57;;;1.20;99.90;;;;;;5013280;28;20046;-61
2024/01/17 07:14:12;;;;;;;11.68;6.20;;;1.20;99.90;;;;;;5012985;28;20048;-61
2024/01/17 07:16:38;;;;;;;12.60;6.63;;;1.20;99.90;;;;;;5013304;28;20042;-61
2024/01/17 07:19:05;;;;;;;7.63;5.55;;;1.20;99.90;;;;;;5012852;28;20038;-61
2024/01/17 07:21:32;;;;;;;11.98;6.28;;;1.20;99.90;;;;;;5013463;28;20049;-61
2024/01/17 07:23:59;;;;;;;11.60;6.22;;;1.20;99.90;;;;;;5012922;28;20038;-61
2024/01/17 07:26:26;;;;;;;15.15;6.55;;;1.20;99.90;;;;;;5012841;28;20046;-61
2024/01/17 07:28:53;;;;;;;13.15;6.18;;;1.20;99.90;;;;;;5013505;28;20135;-61
2024/01/17 07:31:20;;;;;;;12.10;6.60;;;1.20;99.90;;;;;;5013399;28;20060;-61
2024/01/17 07:33:46;;;;;;;9.88;6.35;;;1.20;99.90;;;;;;5013297;28;20038;-61
2024/01/17 07:36:14;;;;;;;12.20;6.13;;;1.20;99.90;;;;;;5011455;28;20046;-60
2024/01/17 07:38:41;;;;;;;10.95;5.93;;;1.20;99.90;;;;;;5012773;28;20048;-61
2024/01/17 07:41:08;;;;;;;11.90;6.40;;;1.20;99.90;;;;;;5012887;28;20533;-61
2024/01/17 07:43:35;;;;;;;10.63;6.85;;;1.20;99.90;;;;;;5015866;28;20069;-61
2024/01/17 07:46:01;;;;;;;9.95;6.22;;;1.20;99.90;;;;;;5016829;28;20045;-61
2024/01/17 07:48:28;;;;;;;9.02;6.22;;;1.20;99.90;;;;;;5015405;28;20044;-61
2024/01/17 07:50:56;;;;;;;13.27;6.57;;;1.10;99.90;;;;;;5015404;28;20057;-60
2024/01/17 07:53:24;;;;;;;17.52;6.75;;;1.20;99.90;;;;;;5016094;28;20038;-60
2024/01/17 07:55:50;;;;;;;12.13;6.35;;;1.20;99.90;;;;;;5016364;28;20379;-60
2024/01/17 07:58:17;;;;;;;12.57;7.32;;;1.20;99.90;;;;;;5016552;28;20065;-60
2024/01/17 08:00:44;;;;;;;13.43;6.70;;;1.20;99.90;;;;;;5016562;28;20038;-60
2024/01/17 08:03:11;;;;;;;10.90;6.55;;;1.10;99.90;;;;;;5016561;28;20048;-65
2024/01/17 08:05:38;;;;;;;10.90;6.40;;;1.10;99.90;;;;;;5016716;28;20042;-65
2024/01/17 08:08:05;;;;;;;10.20;6.30;;;1.20;99.90;;;;;;5015311;28;20359;-65
2024/01/17 08:10:32;;;;;;;11.15;6.80;;;1.20;99.90;;;;;;5016499;28;20042;-64
2024/01/17 08:12:59;;;;;;;10.85;6.57;;;1.20;99.90;;;;;;5016513;28;20103;-65
2024/01/17 08:15:26;;;;;;;11.52;6.75;;;1.20;99.90;;;;;;5015836;28;20037;-65
2024/01/17 08:17:53;;;;;;;12.27;6.38;;;1.20;99.90;;;;;;5015902;28;20060;-65
2024/01/17 08:20:20;;;;;;;12.70;6.70;;;1.20;99.90;;;;;;5015454;28;20136;-65
2024/01/17 08:22:47;;;;;;;11.43;7.03;;;1.20;99.90;;;;;;5020688;28;20420;-65
2024/01/17 08:25:14;;;;;;;14.23;7.95;;;1.20;99.90;;;;;;5015179;28;20129;-65
2024/01/17 08:27:41;;;;;;;10.90;6.90;;;1.30;99.90;;;;;;5030941;28;20124;-64
2024/01/17 08:30:09;;;;;;;11.77;6.78;;;1.30;99.90;;;;;;5033777;28;20497;-65
2024/01/17 08:32:37;;;;;;;15.10;7.13;;;1.30;99.90;;;;;;5035060;28;20112;-65
2024/01/17 08:35:04;;;;;;;10.85;6.55;;;1.30;99.90;;;;;;5027638;28;20054;-60
2024/01/17 08:37:31;;;;;;;14.93;7.47;;;1.40;99.90;;;;;;5034796;28;20163;-60
2024/01/17 08:39:58;;;;;;;11.32;7.60;;;1.40;99.90;;;;;;5033557;28;20046;-60
2024/01/17 08:42:25;;;;;;;14.32;6.82;;;1.40;99.90;;;;;;5034397;28;20072;-60
2024/01/17 08:44:52;;;;;;;14.00;6.95;;;1.40;99.90;;;;;;5034191;28;20517;-60
2024/01/17 08:47:19;;;;;;;10.65;7.30;;;1.40;99.90;;;;;;5034699;28;20088;-60
2024/01/17 08:49:45;;;;;;;12.25;7.03;;;1.40;99.90;;;;;;5034754;28;20048;-60
2024/01/17 08:52:12;;;;;;;10.68;6.82;;;1.50;99.90;;;;;;5034504;28;20103;-60
2024/01/17 08:54:39;;;;;;;11.38;6.95;;;1.60;99.90;;;;;;5033660;28;20037;-60
2024/01/17 08:57:06;;;;;;;11.75;6.45;;;1.60;99.90;;;;;;5034318;28;20057;-61
2024/01/17 08:59:33;;;;;;;13.50;6.55;;;1.60;99.90;;;;;;5034484;28;20401;-61
2024/01/17 09:02:00;;;;;;;10.80;6.50;;;1.60;99.90;;;;;;5032729;28;20545;-61
2024/01/17 09:04:28;;;;;;;13.05;6.40;;;1.60;99.90;;;;;;5033306;28;20065;-60
2024/01/17 09:06:55;;;;;;;8.90;6.85;;;1.60;99.90;;;;;;5034395;28;20125;-61
2024/01/17 09:09:25;;;;;;;12.98;6.75;;;1.60;99.90;;;;;;5034677;28;20039;-60
2024/01/17 09:11:53;;;;;;;14.73;7.13;;;1.70;99.90;;;;;;5034706;28;20537;-61
2024/01/17 09:14:21;;;;;;;13.15;7.22;;;1.70;99.90;;;;;;5034546;28;20057;-61
2024/01/17 09:16:48;;;;;;;12.10;6.93;;;1.70;99.90;;;;;;5028467;28;20049;-60
2024/01/17 09:19:15;;;;;;;11.80;7.18;;;1.70;99.90;;;;;;5014507;28;20054;-61
2024/01/17 09:21:41;;;;;;;11.27;6.68;;;1.80;99.90;;;;;;5013432;28;20045;-61
2024/01/17 09:24:08;;;;;;;12.18;7.78;;;1.70;99.90;;;;;;5012474;28;20048;-61
2024/01/17 09:26:35;;;;;;;11.75;7.05;;;1.80;99.90;;;;;;5014174;28;20033;-60
2024/01/17 09:29:03;;;;;;;11.07;7.55;;;1.80;99.90;;;;;;5014352;28;20128;-60
2024/01/17 09:31:30;;;;;;;10.95;7.13;;;1.80;99.90;;;;;;5013245;28;20403;-60
2024/01/17 09:33:56;;;;;;;12.13;7.07;;;1.80;99.90;;;;;;5013934;28;20396;-61
2024/01/17 09:36:24;;;;;;;15.73;8.07;;;1.80;99.90;;;;;;5013044;28;20049;-61
2024/01/17 09:38:50;;;;;;;12.30;8.15;;;1.80;99.90;;;;;;5014233;28;20056;-60
2024/01/17 09:41:17;;;;;;;15.63;7.82;;;1.90;99.90;;;;;;5013883;28;20042;-60
2024/01/17 09:43:44;;;;;;;12.90;7.50;;;1.90;99.90;;;;;;5013628;28;20419;-60
2024/01/17 09:46:12;;;;;;;12.40;7.43;;;1.90;99.90;;;;;;5014016;28;20045;-60
2024/01/17 09:48:40;;;;;;;12.48;7.43;;;2.00;99.90;;;;;;5014068;28;20070;-61
2024/01/17 09:51:07;;;;;;;11.35;6.78;;;2.00;99.90;;;;;;5013877;28;20045;-59
2024/01/17 09:53:34;;;;;;;10.40;7.28;;;2.00;99.90;;;;;;5013517;28;20649;-59
2024/01/17 09:56:01;;;;;;;13.43;7.03;;;2.00;99.90;;;;;;5013965;28;20448;-60
2024/01/17 09:58:28;;;;;;;12.43;7.57;;;2.00;99.90;;;;;;5013777;28;20112;-60
2024/01/17 10:00:55;;;;;;;14.23;7.95;;;2.00;99.90;;;;;;5013588;28;20430;-60
2024/01/17 10:03:22;;;;;;;13.63;7.15;;;2.00;99.90;;;;;;5013649;28;20124;-59
2024/01/17 10:05:49;;;;;;;14.07;8.35;;;2.10;99.90;;;;;;5013138;28;20038;-60
2024/01/17 10:08:16;;;;;;;16.40;8.80;;;2.10;99.90;;;;;;5013814;28;20034;-60
2024/01/17 10:10:43;;;;;;;16.10;8.90;;;2.10;99.90;;;;;;5013566;28;20042;-60
2024/01/17 10:13:11;;;;;;;16.75;10.15;;;2.10;99.90;;;;;;5012547;28;20056;-60
2024/01/17 10:15:37;;;;;;;16.27;9.75;;;2.20;99.90;;;;;;5013187;28;20034;-61
2024/01/17 10:18:04;;;;;;;18.08;9.40;;;2.10;99.90;;;;;;5012239;28;20533;-60
2024/01/17 10:20:31;;;;;;;15.55;9.60;;;2.10;99.90;;;;;;5013274;28;20050;-60
2024/01/17 10:22:58;;;;;;;13.48;8.98;;;2.20;99.90;;;;;;5011940;28;20495;-61
2024/01/17 10:25:25;;;;;;;14.90;8.90;;;2.10;99.90;;;;;;5011688;28;20120;-60
2024/01/17 10:27:51;;;;;;;18.27;9.95;;;2.10;99.90;;;;;;5013204;28;20475;-60
2024/01/17 10:30:18;;;;;;;30.83;11.63;;;2.10;99.90;;;;;;5013272;28;20048;-60
2024/01/17 10:32:45;;;;;;;28.27;12.35;;;2.10;99.90;;;;;;5013110;28;20084;-60
2024/01/17 10:35:12;;;;;;;23.95;12.38;;;2.10;99.90;;;;;;5012938;28;20464;-65
2024/01/17 10:37:39;;;;;;;22.30;11.57;;;2.10;99.90;;;;;;5013140;28;20034;-65
2024/01/17 10:40:05;;;;;;;30.85;11.75;;;2.20;99.90;;;;;;5013208;28;20049;-66
2024/01/17 10:42:32;;;;;;;23.45;12.70;;;2.20;99.90;;;;;;5013018;28;20108;-65
2024/01/17 10:44:59;;;;;;;19.88;11.85;;;2.30;99.90;;;;;;5012939;28;20045;-64
2024/01/17 10:47:26;;;;;;;27.20;11.93;;;2.30;99.90;;;;;;5013234;28;20118;-65
2024/01/17 10:49:54;;;;;;;21.45;12.35;;;2.30;99.90;;;;;;5012798;28;20116;-64
2024/01/17 10:52:21;;;;;;;22.92;11.98;;;2.40;99.90;;;;;;5012947;28;20076;-64
2024/01/17 10:54:52;;;;;;;26.42;13.02;;;2.50;99.90;;;;;;5012804;28;20480;-64
2024/01/17 10:57:19;;;;;;;28.20;12.38;;;2.50;99.90;;;;;;5012853;28;20039;-65
2024/01/17 10:59:46;;;;;;;29.98;12.35;;;2.50;99.90;;;;;;5012879;28;20050;-64
2024/01/17 11:02:13;;;;;;;25.40;12.35;;;2.60;99.90;;;;;;5013113;28;20045;-64
2024/01/17 11:04:39;;;;;;;26.40;11.50;;;2.60;99.90;;;;;;5013027;28;20044;-64
2024/01/17 11:07:06;;;;;;;24.25;12.02;;;2.70;99.90;;;;;;5012307;28;20042;-64
2024/01/17 11:09:33;;;;;;;22.00;12.10;;;2.70;99.90;;;;;;5012948;28;20116;-65
2024/01/17 11:12:00;;;;;;;26.73;11.57;;;2.80;99.90;;;;;;5012918;28;20143;-64
2024/01/17 11:14:30;;;;;;;28.17;12.18;;;2.80;99.90;;;;;;5012555;28;20064;-64
2024/01/17 11:16:59;;;;;;;26.00;12.05;;;2.90;99.90;;;;;;5013581;28;20046;-64
2024/01/17 11:19:26;;;;;;;38.78;20.52;;;2.90;99.90;;;;;;5016327;28;20058;-64
2024/01/17 11:21:53;;;;;;;41.53;22.27;;;2.90;99.90;;;;;;5017717;28;20984;-64
2024/01/17 11:24:20;;;;;;;45.80;20.95;;;3.00;99.90;;;;;;5034782;28;20041;-64
2024/01/17 11:26:47;;;;;;;31.25;17.50;;;3.00;99.90;;;;;;5036061;28;20431;-64
2024/01/17 11:29:13;;;;;;;28.05;15.07;;;3.00;99.90;;;;;;5036390;28;20042;-64
2024/01/17 11:31:40;;;;;;;27.70;14.20;;;3.00;99.90;;;;;;5036180;28;20045;-65
2024/01/17 11:34:07;;;;;;;25.83;12.98;;;3.10;99.90;;;;;;5035623;28;20140;-65
2024/01/17 11:36:34;;;;;;;18.50;10.88;;;3.10;99.90;;;;;;5036233;28;20045;-65
2024/01/17 11:39:01;;;;;;;18.67;10.40;;;3.10;99.90;;;;;;5036074;28;20052;-65
2024/01/17 11:41:32;;;;;;;14.98;10.05;;;3.10;99.90;;;;;;5035893;28;20512;-65
2024/01/17 11:43:59;;;;;;;14.02;8.55;;;3.10;99.90;;;;;;5034310;28;20460;-65
2024/01/17 11:46:26;;;;;;;17.35;8.05;;;3.10;99.90;;;;;;5035355;28;20042;-64
2024/01/17 11:48:53;;;;;;;16.60;7.57;;;3.20;99.90;;;;;;5034255;28;20052;-64
2024/01/17 11:51:22;;;;;;;13.57;6.30;;;3.10;99.90;;;;;;5034960;28;20045;-64
2024/01/17 11:53:50;;;;;;;11.35;5.68;;;3.20;99.90;;;;;;5035002;28;20045;-60
2024/01/17 11:56:20;;;;;;;11.30;5.40;;;3.00;99.90;;;;;;5035684;28;20077;-60
2024/01/17 11:58:46;;;;;;;10.85;5.45;;;3.00;99.90;;;;;;5035363;28;20046;-60
2024/01/17 12:01:13;;;;;;;8.80;5.50;;;3.00;99.90;;;;;;5035481;28;20433;-60
2024/01/17 12:03:42;;;;;;;10.05;5.40;;;3.10;99.90;;;;;;5035113;28;20033;-60
2024/01/17 12:06:09;;;;;;;12.60;5.60;;;3.00;99.90;;;;;;5035478;28;20042;-60
2024/01/17 12:08:36;;;;;;;11.68;5.90;;;3.10;99.90;;;;;;5035171;28;20065;-60
2024/01/17 12:11:03;;;;;;;12.10;5.95;;;3.20;99.90;;;;;;5035386;28;20065;-60
2024/01/17 12:13:30;;;;;;;10.30;5.40;;;3.20;99.90;;;;;;5035237;28;20486;-61
2024/01/17 12:15:57;;;;;;;11.25;6.40;;;3.10;99.90;;;;;;5017831;28;20038;-60
2024/01/17 12:18:24;;;;;;;12.65;6.10;;;3.20;99.90;;;;;;5035162;28;20433;-59
2024/01/17 12:20:50;;;;;;;13.25;6.45;;;3.20;99.90;;;;;;5035493;28;20422;-60
2024/01/17 12:23:17;;;;;;;11.55;6.43;;;3.20;99.90;;;;;;5034948;28;20570;-60
2024/01/17 12:25:44;;;;;;;11.45;5.85;;;3.20;99.90;;;;;;5035772;28;20386;-60
2024/01/17 12:28:11;;;;;;;13.45;6.45;;;3.20;99.90;;;;;;5034429;28;20117;-60
2024/01/17 12:30:39;;;;;;;12.70;6.93;;;3.20;99.90;;;;;;5035131;28;20045;-62
2024/01/17 12:33:06;;;;;;;12.80;6.72;;;3.20;99.90;;;;;;5034834;28;20446;-62
2024/01/17 12:35:32;;;;;;;8.23;6.00;;;3.20;99.90;;;;;;5035013;28;20149;-60
2024/01/17 12:37:59;;;;;;;18.48;6.75;;;3.20;99.90;;;;;;5030513;28;20042;-61
2024/01/17 12:40:26;;;;;;;11.88;6.15;;;3.10;99.90;;;;;;5016025;28;20061;-60
2024/01/17 12:42:54;;;;;;;12.02;6.40;;;3.20;99.90;;;;;;5034413;28;20069;-60
2024/01/17 12:45:20;;;;;;;9.80;7.00;;;3.20;99.90;;;;;;5024048;28;20048;-61